Terminal Aerodrome Forecast
Issued by NWS

Home | Current Version | Previous Version | Text Only | Print | Product List | Glossary On
Versions: 1 2 3 4 5 6 7 8 9 10 11 12 13 14 15 16 17 18 19 20 21 22 23 24 25 26 27 28 29 30 31 32 33 34 35 36
000
FTUS43 KDMX 301823 AAA
TAFOTM
TAF AMD
KOTM 301823Z 3018/0118 03010KT P6SM SCT025 OVC035
      TEMPO 3018/3021 BKN025
     FM010200 02010KT P6SM OVC022
     FM010400 35006KT 5SM BR OVC010
     FM011000 VRB03KT 4SM BR OVC003
     FM011300 04008KT 3SM -DZ BR OVC007
     FM011700 03008KT 5SM BR OVC012=

USA.gov is the U.S. government's official web portal to all federal, state and local government web resources and services.